sensor_id;sensor_type;location;lat;lon;timestamp;P1;durP1;ratioP1;P2;durP2;ratioP2
2652;SDS011;1336;48.692;9.144;2024-02-21T06:00:44;6.70;;;3.50;;
2652;SDS011;1336;48.692;9.144;2024-02-21T06:01:37;8.73;;;4.15;;
2652;SDS011;1336;48.692;9.144;2024-02-21T06:02:27;4.70;;;3.50;;
2652;SDS011;1336;48.692;9.144;2024-02-21T06:03:18;8.33;;;3.93;;
2652;SDS011;1336;48.692;9.144;2024-02-21T06:04:10;5.57;;;3.22;;
2652;SDS011;1336;48.692;9.144;2024-02-21T06:05:01;8.20;;;3.73;;
2652;SDS011;1336;48.692;9.144;2024-02-21T06:05:51;9.17;;;3.60;;
2652;SDS011;1336;48.692;9.144;2024-02-21T06:06:44;10.15;;;4.28;;
2652;SDS011;1336;48.692;9.144;2024-02-21T06:07:35;6.20;;;3.37;;
2652;SDS011;1336;48.692;9.144;2024-02-21T06:08:25;4.37;;;2.90;;
2652;SDS011;1336;48.692;9.144;2024-02-21T06:09:17;8.75;;;3.83;;
2652;SDS011;1336;48.692;9.144;2024-02-21T06:10:08;5.23;;;3.27;;
2652;SDS011;1336;48.692;9.144;2024-02-21T06:10:59;7.78;;;3.35;;
2652;SDS011;1336;48.692;9.144;2024-02-21T06:11:51;8.85;;;3.30;;
2652;SDS011;1336;48.692;9.144;2024-02-21T06:12:42;5.63;;;2.80;;
2652;SDS011;1336;48.692;9.144;2024-02-21T06:13:32;7.10;;;3.97;;
2652;SDS011;1336;48.692;9.144;2024-02-21T06:14:24;5.90;;;3.60;;
2652;SDS011;1336;48.692;9.144;2024-02-21T06:15:15;10.00;;;3.70;;
2652;SDS011;1336;48.692;9.144;2024-02-21T06:16:08;5.72;;;3.25;;
2652;SDS011;1336;48.692;9.144;2024-02-21T06:16:59;6.05;;;3.75;;
2652;SDS011;1336;48.692;9.144;2024-02-21T06:17:50;7.90;;;3.50;;
2652;SDS011;1336;48.692;9.144;2024-02-21T06:18:42;5.75;;;3.75;;
2652;SDS011;1336;48.692;9.144;2024-02-21T06:19:32;7.00;;;3.85;;
2652;SDS011;1336;48.692;9.144;2024-02-21T06:20:24;6.18;;;3.42;;
2652;SDS011;1336;48.692;9.144;2024-02-21T06:21:15;6.80;;;3.90;;
2652;SDS011;1336;48.692;9.144;2024-02-21T06:22:07;7.75;;;3.45;;
2652;SDS011;1336;48.692;9.144;2024-02-21T06:22:59;8.25;;;3.65;;
2652;SDS011;1336;48.692;9.144;2024-02-21T06:23:50;6.30;;;3.47;;
2652;SDS011;1336;48.692;9.144;2024-02-21T06:24:41;7.17;;;3.33;;
2652;SDS011;1336;48.692;9.144;2024-02-21T06:25:34;9.30;;;3.40;;
2652;SDS011;1336;48.692;9.144;2024-02-21T06:26:25;6.57;;;3.20;;
2652;SDS011;1336;48.692;9.144;2024-02-21T06:27:16;7.35;;;3.72;;
2652;SDS011;1336;48.692;9.144;2024-02-21T06:28:08;6.32;;;2.92;;
2652;SDS011;1336;48.692;9.144;2024-02-21T06:28:59;6.32;;;3.50;;
2652;SDS011;1336;48.692;9.144;2024-02-21T06:29:51;6.03;;;3.70;;
2652;SDS011;1336;48.692;9.144;2024-02-21T06:30:42;5.03;;;2.92;;
2652;SDS011;1336;48.692;9.144;2024-02-21T06:31:36;5.20;;;3.40;;
2652;SDS011;1336;48.692;9.144;2024-02-21T06:32:28;4.90;;;2.92;;
2652;SDS011;1336;48.692;9.144;2024-02-21T06:33:18;9.80;;;3.70;;
2652;SDS011;1336;48.692;9.144;2024-02-21T06:34:14;8.13;;;3.40;;
2652;SDS011;1336;48.692;9.144;2024-02-21T06:35:07;6.72;;;3.40;;
2652;SDS011;1336;48.692;9.144;2024-02-21T06:35:58;8.30;;;4.10;;
2652;SDS011;1336;48.692;9.144;2024-02-21T06:36:48;5.17;;;3.07;;
2652;SDS011;1336;48.692;9.144;2024-02-21T06:37:40;5.97;;;3.42;;
2652;SDS011;1336;48.692;9.144;2024-02-21T06:38:31;6.43;;;3.30;;
2652;SDS011;1336;48.692;9.144;2024-02-21T06:39:24;8.25;;;4.00;;
2652;SDS011;1336;48.692;9.144;2024-02-21T06:40:15;5.00;;;3.75;;
2652;SDS011;1336;48.692;9.144;2024-02-21T06:41:14;4.95;;;3.45;;
2652;SDS011;1336;48.692;9.144;2024-02-21T06:42:05;9.43;;;3.75;;
2652;SDS011;1336;48.692;9.144;2024-02-21T06:42:56;7.33;;;3.43;;
2652;SDS011;1336;48.692;9.144;2024-02-21T06:43:48;6.88;;;3.65;;
2652;SDS011;1336;48.692;9.144;2024-02-21T06:44:39;5.57;;;2.93;;
2652;SDS011;1336;48.692;9.144;2024-02-21T06:45:31;5.88;;;3.70;;
2652;SDS011;1336;48.692;9.144;2024-02-21T06:46:25;5.50;;;3.83;;
2652;SDS011;1336;48.692;9.144;2024-02-21T06:47:19;6.05;;;4.05;;
2652;SDS011;1336;48.692;9.144;2024-02-21T06:48:10;6.82;;;3.30;;
2652;SDS011;1336;48.692;9.144;2024-02-21T06:49:01;6.30;;;3.57;;
2652;SDS011;1336;48.692;9.144;2024-02-21T06:49:54;5.45;;;3.08;;
2652;SDS011;1336;48.692;9.144;2024-02-21T06:50:45;11.37;;;4.20;;
2652;SDS011;1336;48.692;9.144;2024-02-21T06:51:37;6.60;;;3.60;;
2652;SDS011;1336;48.692;9.144;2024-02-21T06:52:27;7.40;;;3.90;;
2652;SDS011;1336;48.692;9.144;2024-02-21T06:53:21;4.63;;;3.28;;
2652;SDS011;1336;48.692;9.144;2024-02-21T06:54:11;6.47;;;4.03;;
2652;SDS011;1336;48.692;9.144;2024-02-21T06:55:03;5.88;;;3.78;;
2652;SDS011;1336;48.692;9.144;2024-02-21T06:55:54;7.10;;;4.20;;
2652;SDS011;1336;48.692;9.144;2024-02-21T06:56:45;7.23;;;4.37;;
2652;SDS011;1336;48.692;9.144;2024-02-21T06:57:37;4.60;;;4.10;;
2652;SDS011;1336;48.692;9.144;2024-02-21T06:58:27;9.97;;;4.53;;
2652;SDS011;1336;48.692;9.144;2024-02-21T06:59:18;6.97;;;4.00;;
2652;SDS011;1336;48.692;9.144;2024-02-21T07:00:10;6.30;;;3.70;;
2652;SDS011;1336;48.692;9.144;2024-02-21T07:01:02;6.78;;;4.05;;
2652;SDS011;1336;48.692;9.144;2024-02-21T07:01:54;4.72;;;3.78;;
2652;SDS011;1336;48.692;9.144;2024-02-21T07:02:49;6.85;;;4.20;;
2652;SDS011;1336;48.692;9.144;2024-02-21T07:03:39;8.15;;;3.50;;
2652;SDS011;1336;48.692;9.144;2024-02-21T07:04:31;4.35;;;3.40;;
2652;SDS011;1336;48.692;9.144;2024-02-21T07:05:22;9.07;;;4.57;;
2652;SDS011;1336;48.692;9.144;2024-02-21T07:06:13;6.03;;;3.83;;
2652;SDS011;1336;48.692;9.144;2024-02-21T07:07:05;5.38;;;4.00;;
2652;SDS011;1336;48.692;9.144;2024-02-21T07:07:56;13.20;;;4.63;;
2652;SDS011;1336;48.692;9.144;2024-02-21T07:08:48;8.38;;;4.65;;
2652;SDS011;1336;48.692;9.144;2024-02-21T07:09:39;8.15;;;4.28;;
2652;SDS011;1336;48.692;9.144;2024-02-21T07:10:30;8.07;;;4.03;;
2652;SDS011;1336;48.692;9.144;2024-02-21T07:11:21;7.33;;;4.53;;
2652;SDS011;1336;48.692;9.144;2024-02-21T07:12:12;11.87;;;5.20;;
2652;SDS011;1336;48.692;9.144;2024-02-21T07:13:04;6.57;;;3.50;;
2652;SDS011;1336;48.692;9.144;2024-02-21T07:13:56;6.45;;;4.43;;
2652;SDS011;1336;48.692;9.144;2024-02-21T07:14:47;6.90;;;3.97;;
2652;SDS011;1336;48.692;9.144;2024-02-21T07:15:39;6.75;;;4.45;;
2652;SDS011;1336;48.692;9.144;2024-02-21T07:16:30;8.07;;;4.80;;
2652;SDS011;1336;48.692;9.144;2024-02-21T07:17:22;7.50;;;4.20;;
2652;SDS011;1336;48.692;9.144;2024-02-21T07:18:15;4.22;;;3.20;;
2652;SDS011;1336;48.692;9.144;2024-02-21T07:19:06;6.85;;;3.53;;
2652;SDS011;1336;48.692;9.144;2024-02-21T07:19:58;8.73;;;4.22;;
2652;SDS011;1336;48.692;9.144;2024-02-21T07:20:50;5.83;;;3.60;;
2652;SDS011;1336;48.692;9.144;2024-02-21T07:21:42;6.07;;;4.30;;
2652;SDS011;1336;48.692;9.144;2024-02-21T07:22:33;5.60;;;3.80;;
2652;SDS011;1336;48.692;9.144;2024-02-21T07:23:24;8.25;;;4.05;;
2652;SDS011;1336;48.692;9.144;2024-02-21T07:24:15;7.15;;;3.50;;
2652;SDS011;1336;48.692;9.144;2024-02-21T07:25:07;5.53;;;3.50;;
2652;SDS011;1336;48.692;9.144;2024-02-21T07:25:58;8.05;;;4.60;;
2652;SDS011;1336;48.692;9.144;2024-02-21T07:26:50;8.05;;;3.38;;
2652;SDS011;1336;48.692;9.144;2024-02-21T07:27:41;4.90;;;2.87;;
2652;SDS011;1336;48.692;9.144;2024-02-21T07:28:32;12.00;;;4.32;;
2652;SDS011;1336;48.692;9.144;2024-02-21T07:29:24;7.55;;;3.40;;
2652;SDS011;1336;48.692;9.144;2024-02-21T07:30:14;5.83;;;2.97;;
2652;SDS011;1336;48.692;9.144;2024-02-21T07:31:05;10.52;;;3.88;;
2652;SDS011;1336;48.692;9.144;2024-02-21T07:31:57;7.88;;;3.85;;
2652;SDS011;1336;48.692;9.144;2024-02-21T07:32:48;4.87;;;3.43;;
2652;SDS011;1336;48.692;9.144;2024-02-21T07:33:41;7.25;;;3.80;;
2652;SDS011;1336;48.692;9.144;2024-02-21T07:34:33;10.68;;;3.30;;
2652;SDS011;1336;48.692;9.144;2024-02-21T07:35:23;8.20;;;4.20;;
2652;SDS011;1336;48.692;9.144;2024-02-21T07:36:14;8.07;;;4.17;;
2652;SDS011;1336;48.692;9.144;2024-02-21T07:37:06;6.88;;;3.28;;
2652;SDS011;1336;48.692;9.144;2024-02-21T07:37:57;8.53;;;3.50;;
2652;SDS011;1336;48.692;9.144;2024-02-21T07:38:48;8.50;;;3.43;;
2652;SDS011;1336;48.692;9.144;2024-02-21T07:39:40;7.80;;;3.30;;
2652;SDS011;1336;48.692;9.144;2024-02-21T07:40:31;13.27;;;4.40;;
2652;SDS011;1336;48.692;9.144;2024-02-21T07:41:24;8.07;;;3.00;;
2652;SDS011;1336;48.692;9.144;2024-02-21T07:42:15;10.20;;;3.22;;
2652;SDS011;1336;48.692;9.144;2024-02-21T07:43:06;5.20;;;2.63;;
2652;SDS011;1336;48.692;9.144;2024-02-21T07:43:57;6.10;;;3.00;;
2652;SDS011;1336;48.692;9.144;2024-02-21T07:44:48;8.57;;;3.20;;
2652;SDS011;1336;48.692;9.144;2024-02-21T07:45:39;8.65;;;2.90;;
2652;SDS011;1336;48.692;9.144;2024-02-21T07:46:31;7.18;;;3.00;;
2652;SDS011;1336;48.692;9.144;2024-02-21T07:47:22;6.77;;;3.00;;
2652;SDS011;1336;48.692;9.144;2024-02-21T07:48:13;9.52;;;3.20;;
2652;SDS011;1336;48.692;9.144;2024-02-21T07:49:06;5.72;;;2.80;;
2652;SDS011;1336;48.692;9.144;2024-02-21T07:49:57;7.43;;;3.08;;
2652;SDS011;1336;48.692;9.144;2024-02-21T07:50:48;8.87;;;3.00;;
2652;SDS011;1336;48.692;9.144;2024-02-21T07:51:40;5.40;;;3.55;;
2652;SDS011;1336;48.692;9.144;2024-02-21T07:52:32;7.68;;;3.40;;
2652;SDS011;1336;48.692;9.144;2024-02-21T07:53:23;5.50;;;3.10;;
2652;SDS011;1336;48.692;9.144;2024-02-21T07:54:14;8.13;;;3.88;;
2652;SDS011;1336;48.692;9.144;2024-02-21T07:55:05;5.70;;;2.90;;
2652;SDS011;1336;48.692;9.144;2024-02-21T07:55:56;5.50;;;2.65;;
2652;SDS011;1336;48.692;9.144;2024-02-21T07:56:48;6.43;;;3.30;;
2652;SDS011;1336;48.692;9.144;2024-02-21T07:57:39;6.77;;;3.00;;
2652;SDS011;1336;48.692;9.144;2024-02-21T07:58:29;5.40;;;3.13;;
2652;SDS011;1336;48.692;9.144;2024-02-21T07:59:21;7.18;;;3.70;;
2652;SDS011;1336;48.692;9.144;2024-02-21T08:00:12;8.80;;;3.23;;
2652;SDS011;1336;48.692;9.144;2024-02-21T08:01:09;9.13;;;3.38;;
2652;SDS011;1336;48.692;9.144;2024-02-21T08:02:01;7.20;;;3.35;;
2652;SDS011;1336;48.692;9.144;2024-02-21T08:02:52;4.78;;;2.80;;
2652;SDS011;1336;48.692;9.144;2024-02-21T08:03:43;5.70;;;3.43;;
2652;SDS011;1336;48.692;9.144;2024-02-21T08:04:35;5.75;;;2.53;;
2652;SDS011;1336;48.692;9.144;2024-02-21T08:05:28;6.50;;;3.17;;
2652;SDS011;1336;48.692;9.144;2024-02-21T08:06:20;6.82;;;3.50;;
2652;SDS011;1336;48.692;9.144;2024-02-21T08:07:11;7.20;;;3.20;;
2652;SDS011;1336;48.692;9.144;2024-02-21T08:08:02;5.78;;;2.45;;
2652;SDS011;1336;48.692;9.144;2024-02-21T08:08:53;10.18;;;3.42;;
2652;SDS011;1336;48.692;9.144;2024-02-21T08:09:44;7.63;;;2.60;;
2652;SDS011;1336;48.692;9.144;2024-02-21T08:10:36;8.65;;;2.90;;
2652;SDS011;1336;48.692;9.144;2024-02-21T08:11:29;8.70;;;3.30;;
2652;SDS011;1336;48.692;9.144;2024-02-21T08:12:21;6.03;;;3.00;;
2652;SDS011;1336;48.692;9.144;2024-02-21T08:13:11;5.83;;;2.90;;
2652;SDS011;1336;48.692;9.144;2024-02-21T08:14:03;7.75;;;3.20;;
2652;SDS011;1336;48.692;9.144;2024-02-21T08:14:54;8.17;;;3.27;;
2652;SDS011;1336;48.692;9.144;2024-02-21T08:15:44;4.13;;;2.73;;
2652;SDS011;1336;48.692;9.144;2024-02-21T08:16:36;6.18;;;3.33;;
2652;SDS011;1336;48.692;9.144;2024-02-21T08:17:27;5.27;;;2.47;;
2652;SDS011;1336;48.692;9.144;2024-02-21T08:18:19;6.20;;;2.65;;
2652;SDS011;1336;48.692;9.144;2024-02-21T08:19:10;6.67;;;3.10;;
2652;SDS011;1336;48.692;9.144;2024-02-21T08:20:04;9.48;;;3.20;;
2652;SDS011;1336;48.692;9.144;2024-02-21T08:20:55;7.18;;;3.70;;
2652;SDS011;1336;48.692;9.144;2024-02-21T08:21:47;6.78;;;3.05;;
2652;SDS011;1336;48.692;9.144;2024-02-21T08:22:37;6.03;;;3.00;;
2652;SDS011;1336;48.692;9.144;2024-02-21T08:23:29;4.75;;;2.50;;
2652;SDS011;1336;48.692;9.144;2024-02-21T08:24:20;7.70;;;2.80;;
2652;SDS011;1336;48.692;9.144;2024-02-21T08:25:13;6.97;;;3.22;;
2652;SDS011;1336;48.692;9.144;2024-02-21T08:26:04;7.50;;;3.63;;
2652;SDS011;1336;48.692;9.144;2024-02-21T08:26:56;7.28;;;2.80;;
2652;SDS011;1336;48.692;9.144;2024-02-21T08:27:46;6.10;;;2.70;;
2652;SDS011;1336;48.692;9.144;2024-02-21T08:28:38;6.00;;;3.30;;
2652;SDS011;1336;48.692;9.144;2024-02-21T08:29:29;6.63;;;2.67;;
2652;SDS011;1336;48.692;9.144;2024-02-21T08:30:21;6.88;;;2.90;;
2652;SDS011;1336;48.692;9.144;2024-02-21T08:31:17;5.13;;;3.08;;
2652;SDS011;1336;48.692;9.144;2024-02-21T08:32:09;7.60;;;3.40;;
2652;SDS011;1336;48.692;9.144;2024-02-21T08:33:00;8.35;;;2.60;;
2652;SDS011;1336;48.692;9.144;2024-02-21T08:33:51;7.07;;;3.13;;
2652;SDS011;1336;48.692;9.144;2024-02-21T08:34:42;5.73;;;2.80;;
2652;SDS011;1336;48.692;9.144;2024-02-21T08:35:35;6.90;;;3.25;;
2652;SDS011;1336;48.692;9.144;2024-02-21T08:36:25;7.38;;;3.20;;
2652;SDS011;1336;48.692;9.144;2024-02-21T08:37:16;4.77;;;2.60;;
2652;SDS011;1336;48.692;9.144;2024-02-21T08:38:08;10.02;;;3.03;;
2652;SDS011;1336;48.692;9.144;2024-02-21T08:38:59;5.07;;;2.77;;
2652;SDS011;1336;48.692;9.144;2024-02-21T08:39:50;4.13;;;2.75;;
2652;SDS011;1336;48.692;9.144;2024-02-21T08:40:42;7.28;;;2.80;;
2652;SDS011;1336;48.692;9.144;2024-02-21T08:41:33;6.97;;;2.83;;
2652;SDS011;1336;48.692;9.144;2024-02-21T08:42:25;5.20;;;2.95;;
2652;SDS011;1336;48.692;9.144;2024-02-21T08:43:16;6.90;;;2.60;;
2652;SDS011;1336;48.692;9.144;2024-02-21T08:44:06;5.47;;;2.90;;
2652;SDS011;1336;48.692;9.144;2024-02-21T08:44:58;5.25;;;2.97;;
2652;SDS011;1336;48.692;9.144;2024-02-21T08:45:49;8.10;;;3.20;;
2652;SDS011;1336;48.692;9.144;2024-02-21T08:46:40;7.57;;;2.97;;
2652;SDS011;1336;48.692;9.144;2024-02-21T08:47:31;6.53;;;2.55;;
2652;SDS011;1336;48.692;9.144;2024-02-21T08:48:22;6.10;;;2.60;;
2652;SDS011;1336;48.692;9.144;2024-02-21T08:49:15;6.65;;;2.60;;
2652;SDS011;1336;48.692;9.144;2024-02-21T08:50:07;4.95;;;2.30;;
2652;SDS011;1336;48.692;9.144;2024-02-21T08:51:01;5.28;;;3.05;;
2652;SDS011;1336;48.692;9.144;2024-02-21T08:51:51;6.28;;;2.90;;
2652;SDS011;1336;48.692;9.144;2024-02-21T08:52:43;7.70;;;2.33;;
2652;SDS011;1336;48.692;9.144;2024-02-21T08:53:34;5.80;;;2.37;;
2652;SDS011;1336;48.692;9.144;2024-02-21T08:54:25;4.20;;;2.93;;
2652;SDS011;1336;48.692;9.144;2024-02-21T08:55:16;6.70;;;2.63;;
2652;SDS011;1336;48.692;9.144;2024-02-21T08:56:07;12.00;;;2.97;;
2652;SDS011;1336;48.692;9.144;2024-02-21T08:56:58;5.13;;;2.80;;
2652;SDS011;1336;48.692;9.144;2024-02-21T08:57:49;6.45;;;2.75;;
2652;SDS011;1336;48.692;9.144;2024-02-21T08:58:40;14.00;;;3.23;;
2652;SDS011;1336;48.692;9.144;2024-02-21T08:59:31;6.43;;;3.33;;
2652;SDS011;1336;48.692;9.144;2024-02-21T09:00:23;5.75;;;2.80;;
2652;SDS011;1336;48.692;9.144;2024-02-21T09:01:17;4.85;;;2.50;;
2652;SDS011;1336;48.692;9.144;2024-02-21T09:02:08;8.05;;;3.10;;
2652;SDS011;1336;48.692;9.144;2024-02-21T09:02:59;8.33;;;2.83;;
2652;SDS011;1336;48.692;9.144;2024-02-21T09:03:50;6.60;;;2.80;;
2652;SDS011;1336;48.692;9.144;2024-02-21T09:04:43;7.22;;;2.65;;
2652;SDS011;1336;48.692;9.144;2024-02-21T09:05:34;5.63;;;2.65;;
2652;SDS011;1336;48.692;9.144;2024-02-21T09:06:27;4.35;;;2.60;;
2652;SDS011;1336;48.692;9.144;2024-02-21T09:07:18;6.95;;;2.10;;
2652;SDS011;1336;48.692;9.144;2024-02-21T09:08:10;4.40;;;2.47;;
2652;SDS011;1336;48.692;9.144;2024-02-21T09:09:01;9.90;;;2.50;;
2652;SDS011;1336;48.692;9.144;2024-02-21T09:09:52;7.88;;;2.90;;
2652;SDS011;1336;48.692;9.144;2024-02-21T09:10:44;4.57;;;2.60;;
2652;SDS011;1336;48.692;9.144;2024-02-21T09:11:35;8.50;;;2.80;;
2652;SDS011;1336;48.692;9.144;2024-02-21T09:12:27;5.43;;;2.50;;
2652;SDS011;1336;48.692;9.144;2024-02-21T09:13:18;6.43;;;3.10;;
2652;SDS011;1336;48.692;9.144;2024-02-21T09:14:09;5.53;;;2.30;;
2652;SDS011;1336;48.692;9.144;2024-02-21T09:15:00;6.57;;;3.03;;
2652;SDS011;1336;48.692;9.144;2024-02-21T09:15:51;6.20;;;2.27;;
2652;SDS011;1336;48.692;9.144;2024-02-21T09:16:42;7.07;;;2.67;;
2652;SDS011;1336;48.692;9.144;2024-02-21T09:17:34;6.55;;;3.05;;
2652;SDS011;1336;48.692;9.144;2024-02-21T09:18:24;6.03;;;2.50;;
2652;SDS011;1336;48.692;9.144;2024-02-21T09:19:16;8.27;;;2.97;;
2652;SDS011;1336;48.692;9.144;2024-02-21T09:20:08;7.43;;;2.60;;
2652;SDS011;1336;48.692;9.144;2024-02-21T09:21:02;7.25;;;2.67;;
2652;SDS011;1336;48.692;9.144;2024-02-21T09:21:54;4.50;;;2.60;;
2652;SDS011;1336;48.692;9.144;2024-02-21T09:22:45;4.72;;;2.10;;
2652;SDS011;1336;48.692;9.144;2024-02-21T09:23:36;4.40;;;2.40;;
2652;SDS011;1336;48.692;9.144;2024-02-21T09:24:27;4.90;;;2.33;;
2652;SDS011;1336;48.692;9.144;2024-02-21T09:25:18;5.63;;;2.57;;
2652;SDS011;1336;48.692;9.144;2024-02-21T09:26:10;5.53;;;2.03;;
2652;SDS011;1336;48.692;9.144;2024-02-21T09:27:04;5.38;;;2.42;;
2652;SDS011;1336;48.692;9.144;2024-02-21T09:27:56;4.55;;;2.33;;
2652;SDS011;1336;48.692;9.144;2024-02-21T09:28:48;8.25;;;2.65;;
2652;SDS011;1336;48.692;9.144;2024-02-21T09:29:39;4.97;;;2.43;;
2652;SDS011;1336;48.692;9.144;2024-02-21T09:30:30;4.65;;;2.05;;
2652;SDS011;1336;48.692;9.144;2024-02-21T09:31:21;4.80;;;2.10;;
2652;SDS011;1336;48.692;9.144;2024-02-21T09:32:12;4.43;;;2.00;;
2652;SDS011;1336;48.692;9.144;2024-02-21T09:33:04;8.45;;;2.13;;
2652;SDS011;1336;48.692;9.144;2024-02-21T09:33:55;8.80;;;2.40;;
2652;SDS011;1336;48.692;9.144;2024-02-21T09:34:45;8.77;;;2.97;;
2652;SDS011;1336;48.692;9.144;2024-02-21T09:35:37;4.22;;;2.33;;
2652;SDS011;1336;48.692;9.144;2024-02-21T09:36:28;6.10;;;2.63;;
2652;SDS011;1336;48.692;9.144;2024-02-21T09:37:21;3.25;;;1.92;;
2652;SDS011;1336;48.692;9.144;2024-02-21T09:38:12;5.13;;;2.42;;
2652;SDS011;1336;48.692;9.144;2024-02-21T09:39:03;8.00;;;2.85;;
2652;SDS011;1336;48.692;9.144;2024-02-21T09:39:54;5.20;;;2.57;;
2652;SDS011;1336;48.692;9.144;2024-02-21T09:40:45;5.70;;;2.47;;
2652;SDS011;1336;48.692;9.144;2024-02-21T09:41:37;5.18;;;2.35;;
2652;SDS011;1336;48.692;9.144;2024-02-21T09:42:37;4.63;;;2.17;;
2652;SDS011;1336;48.692;9.144;2024-02-21T09:43:29;3.80;;;1.80;;
2652;SDS011;1336;48.692;9.144;2024-02-21T09:44:21;6.10;;;2.03;;
2652;SDS011;1336;48.692;9.144;2024-02-21T09:45:15;4.33;;;2.47;;
2652;SDS011;1336;48.692;9.144;2024-02-21T09:46:13;10.90;;;2.70;;
2652;SDS011;1336;48.692;9.144;2024-02-21T09:47:09;7.05;;;2.60;;
2652;SDS011;1336;48.692;9.144;2024-02-21T09:48:11;5.57;;;2.47;;
2652;SDS011;1336;48.692;9.144;2024-02-21T09:49:15;3.65;;;2.05;;
2652;SDS011;1336;48.692;9.144;2024-02-21T09:50:11;4.97;;;2.10;;
2652;SDS011;1336;48.692;9.144;2024-02-21T09:51:05;6.00;;;2.20;;
2652;SDS011;1336;48.692;9.144;2024-02-21T09:51:59;4.45;;;2.90;;
2652;SDS011;1336;48.692;9.144;2024-02-21T09:52:54;7.72;;;2.60;;
2652;SDS011;1336;48.692;9.144;2024-02-21T09:53:47;6.80;;;2.15;;
2652;SDS011;1336;48.692;9.144;2024-02-21T09:54:41;4.13;;;2.30;;
2652;SDS011;1336;48.692;9.144;2024-02-21T09:55:34;7.55;;;2.72;;
2652;SDS011;1336;48.692;9.144;2024-02-21T09:56:30;4.15;;;2.00;;
2652;SDS011;1336;48.692;9.144;2024-02-21T09:57:22;4.38;;;2.05;;
2652;SDS011;1336;48.692;9.144;2024-02-21T09:58:14;3.72;;;1.80;;
2652;SDS011;1336;48.692;9.144;2024-02-21T09:59:05;7.70;;;2.30;;
2652;SDS011;1336;48.692;9.144;2024-02-21T09:59:58;4.18;;;1.85;;
2652;SDS011;1336;48.692;9.144;2024-02-21T10:00:57;5.50;;;2.13;;
2652;SDS011;1336;48.692;9.144;2024-02-21T10:01:50;6.80;;;2.00;;
2652;SDS011;1336;48.692;9.144;2024-02-21T10:02:41;4.07;;;2.10;;
2652;SDS011;1336;48.692;9.144;2024-02-21T10:03:32;5.60;;;1.90;;
2652;SDS011;1336;48.692;9.144;2024-02-21T10:04:24;5.65;;;2.10;;
2652;SDS011;1336;48.692;9.144;2024-02-21T10:05:15;6.00;;;2.17;;
2652;SDS011;1336;48.692;9.144;2024-02-21T10:06:07;4.07;;;1.88;;
2652;SDS011;1336;48.692;9.144;2024-02-21T10:06:59;5.75;;;2.00;;
2652;SDS011;1336;48.692;9.144;2024-02-21T10:07:50;4.97;;;2.20;;
2652;SDS011;1336;48.692;9.144;2024-02-21T10:08:43;5.25;;;2.10;;
2652;SDS011;1336;48.692;9.144;2024-02-21T10:09:42;5.75;;;2.15;;
2652;SDS011;1336;48.692;9.144;2024-02-21T10:10:41;8.27;;;2.30;;
2652;SDS011;1336;48.692;9.144;2024-02-21T10:11:34;7.78;;;2.42;;
2652;SDS011;1336;48.692;9.144;2024-02-21T10:12:26;5.63;;;2.25;;
2652;SDS011;1336;48.692;9.144;2024-02-21T10:13:24;6.00;;;2.30;;
2652;SDS011;1336;48.692;9.144;2024-02-21T10:14:16;5.32;;;2.15;;
2652;SDS011;1336;48.692;9.144;2024-02-21T10:15:08;6.38;;;1.80;;
2652;SDS011;1336;48.692;9.144;2024-02-21T10:16:04;4.28;;;2.38;;
2652;SDS011;1336;48.692;9.144;2024-02-21T10:16:56;5.20;;;2.40;;
2652;SDS011;1336;48.692;9.144;2024-02-21T10:17:49;4.97;;;2.00;;
2652;SDS011;1336;48.692;9.144;2024-02-21T10:18:40;4.43;;;2.00;;
2652;SDS011;1336;48.692;9.144;2024-02-21T10:19:32;5.15;;;1.90;;
2652;SDS011;1336;48.692;9.144;2024-02-21T10:20:22;3.97;;;1.80;;
2652;SDS011;1336;48.692;9.144;2024-02-21T10:21:13;5.57;;;2.30;;
2652;SDS011;1336;48.692;9.144;2024-02-21T10:22:06;7.35;;;2.05;;
2652;SDS011;1336;48.692;9.144;2024-02-21T10:23:01;6.40;;;2.22;;
2652;SDS011;1336;48.692;9.144;2024-02-21T10:23:59;3.65;;;1.77;;
2652;SDS011;1336;48.692;9.144;2024-02-21T10:24:49;4.68;;;1.80;;
2652;SDS011;1336;48.692;9.144;2024-02-21T10:25:41;4.25;;;1.75;;
2652;SDS011;1336;48.692;9.144;2024-02-21T10:26:35;5.00;;;2.20;;
2652;SDS011;1336;48.692;9.144;2024-02-21T10:27:28;3.33;;;1.80;;
2652;SDS011;1336;48.692;9.144;2024-02-21T10:28:19;5.68;;;2.20;;
2652;SDS011;1336;48.692;9.144;2024-02-21T10:29:13;3.45;;;1.50;;
2652;SDS011;1336;48.692;9.144;2024-02-21T10:30:05;4.13;;;1.75;;
2652;SDS011;1336;48.692;9.144;2024-02-21T10:30:57;5.28;;;2.22;;
2652;SDS011;1336;48.692;9.144;2024-02-21T10:31:47;3.63;;;1.50;;
2652;SDS011;1336;48.692;9.144;2024-02-21T10:32:48;3.40;;;1.60;;
2652;SDS011;1336;48.692;9.144;2024-02-21T10:33:40;3.90;;;2.10;;
2652;SDS011;1336;48.692;9.144;2024-02-21T10:34:31;6.60;;;2.10;;
2652;SDS011;1336;48.692;9.144;2024-02-21T10:35:26;4.93;;;1.92;;
2652;SDS011;1336;48.692;9.144;2024-02-21T10:36:18;7.22;;;2.15;;
2652;SDS011;1336;48.692;9.144;2024-02-21T10:37:10;4.13;;;1.75;;
2652;SDS011;1336;48.692;9.144;2024-02-21T10:38:02;4.68;;;1.52;;
2652;SDS011;1336;48.692;9.144;2024-02-21T10:38:54;3.97;;;1.70;;
2652;SDS011;1336;48.692;9.144;2024-02-21T10:39:46;5.03;;;1.77;;
2652;SDS011;1336;48.692;9.144;2024-02-21T10:40:38;2.85;;;1.80;;
2652;SDS011;1336;48.692;9.144;2024-02-21T10:41:29;5.37;;;2.23;;
2652;SDS011;1336;48.692;9.144;2024-02-21T10:42:21;2.80;;;1.55;;
2652;SDS011;1336;48.692;9.144;2024-02-21T10:43:13;4.47;;;2.17;;
2652;SDS011;1336;48.692;9.144;2024-02-21T10:44:08;4.18;;;1.70;;
2652;SDS011;1336;48.692;9.144;2024-02-21T10:45:01;4.78;;;1.85;;
2652;SDS011;1336;48.692;9.144;2024-02-21T10:45:55;2.47;;;1.58;;
2652;SDS011;1336;48.692;9.144;2024-02-21T10:46:47;3.08;;;1.90;;
2652;SDS011;1336;48.692;9.144;2024-02-21T10:47:38;2.85;;;1.60;;
2652;SDS011;1336;48.692;9.144;2024-02-21T10:48:33;6.50;;;1.95;;
2652;SDS011;1336;48.692;9.144;2024-02-21T10:49:31;2.58;;;1.67;;
2652;SDS011;1336;48.692;9.144;2024-02-21T10:50:29;4.75;;;1.88;;
2652;SDS011;1336;48.692;9.144;2024-02-21T10:51:22;3.30;;;1.60;;
2652;SDS011;1336;48.692;9.144;2024-02-21T10:52:22;4.65;;;1.80;;
2652;SDS011;1336;48.692;9.144;2024-02-21T10:53:20;5.65;;;1.80;;
2652;SDS011;1336;48.692;9.144;2024-02-21T10:54:24;2.70;;;1.85;;
2652;SDS011;1336;48.692;9.144;2024-02-21T10:55:31;6.93;;;2.55;;
2652;SDS011;1336;48.692;9.144;2024-02-21T10:56:29;7.05;;;2.90;;
2652;SDS011;1336;48.692;9.144;2024-02-21T10:57:25;8.60;;;5.88;;
2652;SDS011;1336;48.692;9.144;2024-02-21T10:58:17;6.40;;;4.20;;
2652;SDS011;1336;48.692;9.144;2024-02-21T10:59:08;5.28;;;2.90;;
2652;SDS011;1336;48.692;9.144;2024-02-21T11:00:00;12.35;;;8.52;;
2652;SDS011;1336;48.692;9.144;2024-02-21T11:00:53;12.38;;;10.02;;
2652;SDS011;1336;48.692;9.144;2024-02-21T11:01:45;7.15;;;4.88;;
2652;SDS011;1336;48.692;9.144;2024-02-21T11:02:36;11.65;;;7.57;;
2652;SDS011;1336;48.692;9.144;2024-02-21T11:03:28;7.82;;;5.65;;
2652;SDS011;1336;48.692;9.144;2024-02-21T11:04:19;6.85;;;5.03;;
2652;SDS011;1336;48.692;9.144;2024-02-21T11:05:11;12.70;;;9.48;;
2652;SDS011;1336;48.692;9.144;2024-02-21T11:06:03;19.48;;;17.00;;
2652;SDS011;1336;48.692;9.144;2024-02-21T11:06:56;20.65;;;15.75;;
2652;SDS011;1336;48.692;9.144;2024-02-21T11:07:47;8.88;;;4.75;;
2652;SDS011;1336;48.692;9.144;2024-02-21T11:08:38;23.27;;;17.00;;
2652;SDS011;1336;48.692;9.144;2024-02-21T11:09:30;14.35;;;11.18;;
2652;SDS011;1336;48.692;9.144;2024-02-21T11:10:22;19.52;;;11.82;;
2652;SDS011;1336;48.692;9.144;2024-02-21T11:11:15;14.10;;;7.70;;
2652;SDS011;1336;48.692;9.144;2024-02-21T11:12:09;8.82;;;5.82;;
2652;SDS011;1336;48.692;9.144;2024-02-21T11:13:05;4.33;;;3.03;;
2652;SDS011;1336;48.692;9.144;2024-02-21T11:14:04;13.05;;;11.38;;
2652;SDS011;1336;48.692;9.144;2024-02-21T11:15:03;13.35;;;11.25;;
2652;SDS011;1336;48.692;9.144;2024-02-21T11:15:55;18.20;;;13.43;;
2652;SDS011;1336;48.692;9.144;2024-02-21T11:16:59;7.28;;;5.50;;
2652;SDS011;1336;48.692;9.144;2024-02-21T11:17:53;9.10;;;7.43;;
2652;SDS011;1336;48.692;9.144;2024-02-21T11:18:46;35.63;;;30.60;;
2652;SDS011;1336;48.692;9.144;2024-02-21T11:19:36;24.17;;;21.58;;
2652;SDS011;1336;48.692;9.144;2024-02-21T11:20:33;10.43;;;6.63;;
2652;SDS011;1336;48.692;9.144;2024-02-21T11:21:32;7.40;;;4.88;;
2652;SDS011;1336;48.692;9.144;2024-02-21T11:22:24;4.57;;;2.85;;
2652;SDS011;1336;48.692;9.144;2024-02-21T11:23:24;3.22;;;2.03;;
2652;SDS011;1336;48.692;9.144;2024-02-21T11:24:25;8.73;;;6.93;;
2652;SDS011;1336;48.692;9.144;2024-02-21T11:25:21;7.50;;;4.40;;